Terminal Aerodrome Forecast
Issued by NWS Shreveport, LA

Home | Current Version | Previous Version | Text Only | Print | Product List | Glossary On
Versions: 1 2 3 4 5 6 7 8 9 10 11 12 13 14 15 16
000
FTUS44 KSHV 311156
TAFGGG
TAF
KGGG 311156Z 3112/0112 18006KT P6SM SCT050 SCT090 BKN250
      TEMPO 3112/3113 5SM BR BKN060 BKN090
     FM311700 18007KT P6SM SCT045 BKN090
     FM312100 21007KT P6SM BKN050 BKN150
     FM010800 16004KT P6SM VCSH BKN040 OVC060
     FM010900 16004KT P6SM VCTS BKN025CB OVC090=

USA.gov is the U.S. government's official web portal to all federal, state and local government web resources and services.